Gassville, AR (72635)

5:30 AM CDT on April 19, 2015 (GMT -0500)
APRSWXNET | | Change Station
CLOSE
Current Station
Personal Weather Station
Location: Gassville, AR
Elevation: 1115 ft
Nearby Weather Stations

Elev 1115 ft 36.26 °N, 92.49 °W | Updated 39 minutes ago

Overcast
Overcast
56 °F
Feels Like 56 °F
N
0
Wind Variable Wind from SSE
Gusts 1.0 mph

Today
High -- | Low -- °F
--% Chance of Precip.
Yesterday
High -- | Low -- °F
Precip. -- in
6:31 AM 7:47 PM
New Moon, 1% visible
Pressure 29.68 in
Visibility 9.0 miles
Clouds Mostly Cloudy 2300 ft
Overcast 3600 ft
Dew Point 55 °F
Humidity 98%
Rainfall in
Snow Depth Not available.
UV 0 out of 12
Pollen 3.30 out of 12
Air Quality Not available.
Flu Activity Sporadic
METAR KBPK 190953Z AUTO 00000KT 9SM BKN023 OVC036 15/14 A2970 RMK AO2 SLP051 T01500144

More Conditions Fewer Conditions

Pressure 29.68 in
Visibility 9.0 miles
Clouds Mostly Cloudy 2300 ft
Overcast 3600 ft
Dew Point 55 °F
Humidity 98%
Rainfall in
Snow Depth Not available.
UV 0 out of 12
Pollen 3.30 out of 12
Air Quality Not available.
Flu Activity Sporadic
METAR KBPK 190953Z AUTO 00000KT 9SM BKN023 OVC036 15/14 A2970 RMK AO2 SLP051 T01500144

More Conditions Fewer Conditions

10-Day Weather Forecast

Almanac

Astronomy

Apr. 19, 2015 Rise Set
Actual Time
Civil Twilight
Nautical Twilight
Astronomical Twilight
Moon
Length of Visible Light
Length of Day
Tomorrow will be .
, % of the Moon is Illuminated

Today's Extremes

State Highs State Lows

Community

WunderPhotos

Upload Photos

1,814,759 photos uploaded!

WunderBlogs® & News

Nearby

Air Quality

  Air Quality AQ Index Pollutant
Not available.

Snow Depth

Station Depth Elevation

Earthquake Activity

City Distance Mag. Time & Date
Minimum magnitude displayed is 2.5.

Coastal Water Temperatures

Place Temperature

Stations

Nearby Weather Stations

Station Location Temp. Windchill Dew Point Humidity Wind Precip. Elev Updated Type